Time;durP1;ratioP1;P1;durP2;ratioP2;P2;SDS_P1;SDS_P2;PMS_P1;PMS_P2;Temp;Humidity;BMP_temperature;BMP_pressure;BME280_temperature;BME280_humidity;BME280_pressure;Samples;Min_cycle;Max_cycle;Signal;HPM_P1;HPM_P2
2020/12/19 00:01:48;;;;;;;4.55;2.90;;;19.30;53.60;;;;;;5083757;28;20075;-45
2020/12/19 00:04:14;;;;;;;3.20;2.90;;;19.30;53.70;;;;;;5097320;28;20496;-45
2020/12/19 00:06:44;;;;;;;2.05;1.95;;;19.30;53.60;;;;;;5088408;28;20051;-44
2020/12/19 00:09:10;;;;;;;4.60;2.30;;;19.30;53.80;;;;;;5093855;28;20055;-45
2020/12/19 00:11:37;;;;;;;3.97;2.50;;;19.30;53.40;;;;;;5091874;28;20052;-44
2020/12/19 00:14:04;;;;;;;2.03;1.77;;;19.30;53.40;;;;;;5085216;28;20044;-44
2020/12/19 00:16:32;;;;;;;3.55;2.95;;;19.30;53.40;;;;;;5092025;28;20114;-47
2020/12/19 00:18:58;;;;;;;4.03;2.05;;;19.30;53.40;;;;;;5091502;28;20568;-44
2020/12/19 00:21:32;;;;;;;3.30;3.00;;;19.30;54.10;;;;;;5095558;28;20055;-44
2020/12/19 00:23:59;;;;;;;6.22;3.13;;;19.30;53.50;;;;;;5093646;28;20419;-48
2020/12/19 00:26:34;;;;;;;4.15;3.28;;;19.20;53.20;;;;;;5089583;28;20055;-45
2020/12/19 00:29:00;;;;;;;5.30;2.20;;;19.30;53.30;;;;;;5094742;27;20059;-44
2020/12/19 00:31:28;;;;;;;2.35;2.15;;;19.20;53.90;;;;;;5087932;28;20067;-44
2020/12/19 00:33:55;;;;;;;4.32;2.55;;;19.20;53.40;;;;;;5099512;28;20866;-45
2020/12/19 00:36:22;;;;;;;3.90;2.30;;;19.20;53.50;;;;;;5092655;28;20075;-48
2020/12/19 00:38:49;;;;;;;6.75;2.85;;;19.20;53.40;;;;;;5091901;28;20417;-47
2020/12/19 00:41:20;;;;;;;2.72;2.50;;;19.20;53.40;;;;;;5080939;28;20106;-60
2020/12/19 00:43:47;;;;;;;4.60;2.42;;;19.20;53.00;;;;;;5086648;28;20527;-44
2020/12/19 00:46:15;;;;;;;3.80;2.22;;;19.20;52.80;;;;;;5085006;28;20085;-45
2020/12/19 00:48:43;;;;;;;4.10;3.05;;;19.20;52.80;;;;;;5079147;28;20079;-45
2020/12/19 00:51:13;;;;;;;5.28;2.33;;;19.20;52.80;;;;;;5081574;28;20053;-44
2020/12/19 00:53:41;;;;;;;4.18;1.77;;;19.20;52.80;;;;;;5093570;28;20052;-42
2020/12/19 00:56:15;;;;;;;4.90;2.95;;;19.10;52.70;;;;;;5089330;28;20119;-43
2020/12/19 00:58:41;;;;;;;6.32;2.03;;;19.10;52.70;;;;;;5085913;28;20500;-47
2020/12/19 01:01:08;;;;;;;2.65;2.05;;;19.10;52.70;;;;;;5101292;28;20124;-45
2020/12/19 01:03:34;;;;;;;3.95;2.65;;;19.10;52.70;;;;;;5081955;28;20075;-48
2020/12/19 01:06:02;;;;;;;2.67;2.45;;;19.00;52.70;;;;;;5095915;28;20078;-48
2020/12/19 01:08:28;;;;;;;2.25;2.03;;;19.00;52.70;;;;;;5083849;28;20057;-45
2020/12/19 01:10:55;;;;;;;3.40;1.95;;;19.00;52.80;;;;;;5085762;28;20044;-44
2020/12/19 01:13:22;;;;;;;1.65;1.55;;;19.00;52.80;;;;;;5101526;28;20052;-43
2020/12/19 01:15:48;;;;;;;4.60;2.97;;;18.90;52.80;;;;;;5085564;28;20591;-43
2020/12/19 01:18:16;;;;;;;2.30;2.10;;;18.90;52.80;;;;;;5097201;28;20055;-45
2020/12/19 01:20:43;;;;;;;2.58;1.80;;;18.90;52.80;;;;;;5078014;28;20071;-42
2020/12/19 01:23:10;;;;;;;4.00;2.85;;;18.90;52.90;;;;;;5090371;28;20072;-42
2020/12/19 01:25:37;;;;;;;9.50;1.80;;;18.90;52.90;;;;;;5097409;28;20055;-41
2020/12/19 01:28:03;;;;;;;2.72;2.17;;;18.80;52.90;;;;;;5081713;28;20586;-42
2020/12/19 01:30:30;;;;;;;3.75;1.60;;;18.80;52.90;;;;;;5098341;28;20060;-46
2020/12/19 01:32:57;;;;;;;2.58;1.55;;;18.80;53.00;;;;;;5077899;28;20056;-43
2020/12/19 01:35:23;;;;;;;2.92;2.10;;;18.80;53.00;;;;;;5091792;28;20043;-42
2020/12/19 01:37:50;;;;;;;3.88;1.35;;;18.80;53.00;;;;;;5093549;28;20052;-43
2020/12/19 01:40:17;;;;;;;3.45;1.45;;;18.80;53.00;;;;;;5083726;28;20055;-43
2020/12/19 01:42:43;;;;;;;1.92;1.67;;;18.70;53.00;;;;;;5096149;28;20051;-43
2020/12/19 01:45:10;;;;;;;1.33;1.27;;;18.70;53.00;;;;;;5084905;28;20507;-43
2020/12/19 01:47:37;;;;;;;1.67;1.58;;;18.70;53.00;;;;;;5091907;28;20051;-43
2020/12/19 01:50:07;;;;;;;2.00;1.42;;;18.70;53.10;;;;;;5091899;28;20054;-46
2020/12/19 01:52:36;;;;;;;1.00;0.90;;;18.70;53.10;;;;;;5087549;28;20095;-51
2020/12/19 01:55:03;;;;;;;2.42;1.60;;;18.70;53.10;;;;;;5101142;28;20048;-52
2020/12/19 01:57:32;;;;;;;2.60;1.88;;;18.70;53.00;;;;;;5080922;28;20446;-51
2020/12/19 01:59:59;;;;;;;1.45;1.35;;;18.60;52.90;;;;;;5094865;28;20047;-51
2020/12/19 02:02:26;;;;;;;4.80;1.48;;;18.60;52.90;;;;;;5090623;28;20040;-46
2020/12/19 02:04:53;;;;;;;1.50;1.40;;;18.60;52.90;;;;;;5089492;28;20068;-47
2020/12/19 02:07:20;;;;;;;2.28;1.85;;;18.60;52.80;;;;;;5088841;28;20500;-43
2020/12/19 02:09:47;;;;;;;1.20;1.08;;;18.60;52.80;;;;;;5089469;28;20054;-43
2020/12/19 02:12:14;;;;;;;1.80;1.40;;;18.60;52.80;;;;;;5083248;28;20052;-43
2020/12/19 02:14:41;;;;;;;2.63;1.73;;;18.60;52.80;;;;;;5079805;28;20041;-44
2020/12/19 02:17:10;;;;;;;2.15;1.67;;;18.60;52.90;;;;;;5089810;28;20504;-44
2020/12/19 02:19:37;;;;;;;1.73;1.35;;;18.60;52.90;;;;;;5096363;28;20052;-43
2020/12/19 02:22:05;;;;;;;3.17;2.15;;;18.60;52.90;;;;;;5079105;28;20082;-44
2020/12/19 02:24:33;;;;;;;1.83;1.73;;;18.60;52.90;;;;;;5086726;28;20055;-45
2020/12/19 02:27:00;;;;;;;3.58;2.70;;;18.50;52.80;;;;;;5102434;28;20119;-43
2020/12/19 02:29:29;;;;;;;4.03;2.75;;;18.60;52.80;;;;;;5088121;28;20448;-45
2020/12/19 02:31:57;;;;;;;4.55;2.67;;;18.50;52.80;;;;;;5094204;28;20051;-45
2020/12/19 02:34:23;;;;;;;2.72;2.42;;;18.60;52.90;;;;;;5091343;28;20052;-45
2020/12/19 02:36:50;;;;;;;3.30;3.03;;;18.50;52.80;;;;;;5095747;28;20135;-43
2020/12/19 02:39:16;;;;;;;3.95;2.72;;;18.50;52.80;;;;;;5079490;28;20051;-46
2020/12/19 02:41:45;;;;;;;4.32;3.67;;;18.50;52.80;;;;;;5082821;28;20036;-43
2020/12/19 02:44:13;;;;;;;4.53;3.20;;;18.50;52.80;;;;;;5080459;28;20044;-51
2020/12/19 02:46:40;;;;;;;7.00;3.47;;;18.50;52.80;;;;;;5087981;28;20052;-46
2020/12/19 02:49:08;;;;;;;5.55;3.25;;;18.50;52.80;;;;;;5096115;28;20056;-43
2020/12/19 02:51:35;;;;;;;3.53;2.75;;;18.50;52.80;;;;;;5079092;28;20043;-43
2020/12/19 02:54:01;;;;;;;4.40;3.80;;;18.50;52.80;;;;;;5083603;28;20058;-48
2020/12/19 02:56:28;;;;;;;3.90;3.60;;;18.50;52.80;;;;;;5076978;28;20123;-44
2020/12/19 02:58:55;;;;;;;5.43;2.97;;;18.40;52.80;;;;;;5084362;28;20097;-46
2020/12/19 03:01:26;;;;;;;3.08;2.70;;;18.50;52.80;;;;;;5098831;28;20526;-43
2020/12/19 03:03:53;;;;;;;2.83;2.60;;;18.50;52.90;;;;;;5072900;28;20131;-44
2020/12/19 03:06:20;;;;;;;4.53;2.65;;;18.40;52.80;;;;;;5096259;28;20078;-43
2020/12/19 03:08:46;;;;;;;2.50;2.30;;;18.50;52.80;;;;;;5080608;28;20708;-48
2020/12/19 03:11:13;;;;;;;2.75;2.55;;;18.40;52.80;;;;;;5089777;28;20039;-44
2020/12/19 03:13:39;;;;;;;3.03;2.83;;;18.40;52.80;;;;;;5093714;28;20044;-43
2020/12/19 03:16:07;;;;;;;4.70;3.08;;;18.40;52.80;;;;;;5085166;28;20051;-42
2020/12/19 03:18:33;;;;;;;3.05;2.70;;;18.40;52.80;;;;;;5095433;28;20062;-42
2020/12/19 03:21:00;;;;;;;3.75;2.08;;;18.40;52.90;;;;;;5076167;28;20530;-43
2020/12/19 03:23:26;;;;;;;2.75;2.55;;;18.40;52.80;;;;;;5089469;28;20075;-44
2020/12/19 03:25:53;;;;;;;2.80;2.50;;;18.40;52.90;;;;;;5090139;28;20102;-44
2020/12/19 03:28:19;;;;;;;5.88;1.95;;;18.40;52.90;;;;;;5078888;28;20088;-46
2020/12/19 03:30:46;;;;;;;2.55;1.92;;;18.40;52.90;;;;;;5083994;28;20505;-43
2020/12/19 03:33:13;;;;;;;1.80;1.70;;;18.40;52.80;;;;;;5078992;28;20141;-45
2020/12/19 03:35:41;;;;;;;2.35;2.00;;;18.40;52.90;;;;;;5087416;28;20530;-46
2020/12/19 03:38:08;;;;;;;9.15;2.00;;;18.40;52.90;;;;;;5085623;28;20053;-43
2020/12/19 03:40:35;;;;;;;6.82;2.78;;;18.40;52.80;;;;;;5080151;28;20040;-42
2020/12/19 03:43:02;;;;;;;3.35;1.77;;;18.40;52.90;;;;;;5096024;28;20076;-45
2020/12/19 03:45:28;;;;;;;2.20;2.10;;;18.40;52.90;;;;;;5083112;28;20039;-45
2020/12/19 03:47:55;;;;;;;2.80;2.28;;;18.40;52.90;;;;;;5094216;28;20095;-42
2020/12/19 03:50:22;;;;;;;3.10;2.53;;;18.40;52.90;;;;;;5081631;28;20127;-43
2020/12/19 03:52:49;;;;;;;2.10;1.67;;;18.40;52.90;;;;;;5083246;28;20049;-42
2020/12/19 03:55:15;;;;;;;3.13;1.83;;;18.40;52.90;;;;;;5098580;28;20147;-42
2020/12/19 03:57:42;;;;;;;2.22;2.03;;;18.40;52.90;;;;;;5077477;28;20072;-48
2020/12/19 04:00:08;;;;;;;3.33;1.50;;;18.40;52.90;;;;;;5093866;28;20047;-42
2020/12/19 04:02:38;;;;;;;2.03;1.38;;;18.40;52.90;;;;;;5077498;28;20048;-42
2020/12/19 04:05:09;;;;;;;1.67;1.58;;;18.40;53.00;;;;;;5086270;28;20491;-43
2020/12/19 04:07:36;;;;;;;1.73;1.60;;;18.40;53.00;;;;;;5094668;28;20044;-43
2020/12/19 04:10:05;;;;;;;1.42;1.33;;;18.40;52.90;;;;;;5079948;28;20543;-43
2020/12/19 04:12:31;;;;;;;2.17;1.40;;;18.40;52.90;;;;;;5095326;28;20135;-43
2020/12/19 04:14:58;;;;;;;2.92;2.15;;;18.40;52.90;;;;;;5080241;28;20504;-42
2020/12/19 04:17:24;;;;;;;3.00;1.48;;;18.40;52.90;;;;;;5090132;28;20083;-43
2020/12/19 04:19:51;;;;;;;2.92;1.27;;;18.40;52.90;;;;;;5090226;28;20128;-47
2020/12/19 04:22:17;;;;;;;2.10;1.55;;;18.40;52.90;;;;;;5078372;28;20048;-43
2020/12/19 04:24:45;;;;;;;1.40;1.30;;;18.40;52.90;;;;;;5097548;28;20064;-42
2020/12/19 04:27:11;;;;;;;1.85;1.05;;;18.40;52.80;;;;;;5077895;28;20110;-44
2020/12/19 04:29:38;;;;;;;1.50;1.48;;;18.40;52.80;;;;;;5090030;28;20047;-43
2020/12/19 04:32:04;;;;;;;1.23;1.23;;;18.40;53.40;;;;;;5086258;28;20047;-43
2020/12/19 04:34:31;;;;;;;1.23;1.05;;;18.40;52.80;;;;;;5077461;28;20056;-43
2020/12/19 04:36:57;;;;;;;1.55;1.25;;;18.40;52.80;;;;;;5096100;28;20063;-45
2020/12/19 04:39:24;;;;;;;1.50;1.17;;;18.30;52.70;;;;;;5078579;28;20195;-44
2020/12/19 04:41:51;;;;;;;1.10;1.02;;;18.40;52.80;;;;;;5090346;28;20048;-48
2020/12/19 04:44:20;;;;;;;1.10;1.00;;;18.30;52.60;;;;;;5081566;28;20117;-43
2020/12/19 04:46:47;;;;;;;1.50;1.40;;;18.40;52.70;;;;;;5085301;28;20063;-43
2020/12/19 04:49:14;;;;;;;0.77;0.77;;;18.30;52.60;;;;;;5097083;28;20130;-44
2020/12/19 04:51:40;;;;;;;5.38;1.40;;;18.30;52.70;;;;;;5075272;28;20040;-43
2020/12/19 04:54:07;;;;;;;1.00;0.85;;;18.40;52.70;;;;;;5093789;28;20048;-43
2020/12/19 04:56:34;;;;;;;1.70;0.93;;;18.30;52.60;;;;;;5081372;28;20057;-42
2020/12/19 04:59:03;;;;;;;2.58;1.35;;;18.40;52.70;;;;;;5088627;28;20049;-45
2020/12/19 05:01:30;;;;;;;1.70;0.82;;;18.30;52.60;;;;;;5097986;28;20641;-45
2020/12/19 05:03:57;;;;;;;0.95;0.63;;;18.30;52.60;;;;;;5080071;28;20049;-43
2020/12/19 05:06:26;;;;;;;2.28;1.33;;;18.30;52.60;;;;;;5098209;28;20384;-46
2020/12/19 05:08:53;;;;;;;2.17;1.23;;;18.30;52.60;;;;;;5074410;28;20056;-47
2020/12/19 05:11:21;;;;;;;0.98;0.98;;;18.30;52.60;;;;;;5085032;28;20054;-48
2020/12/19 05:13:48;;;;;;;1.08;0.90;;;18.30;52.60;;;;;;5086062;28;20059;-43
2020/12/19 05:16:18;;;;;;;1.15;1.05;;;18.30;52.50;;;;;;5085500;28;20052;-43
2020/12/19 05:18:45;;;;;;;2.90;1.17;;;18.30;52.50;;;;;;5101304;28;20040;-46
2020/12/19 05:21:13;;;;;;;1.00;1.00;;;18.30;52.60;;;;;;5080319;28;20413;-45
2020/12/19 05:23:41;;;;;;;0.90;0.90;;;18.30;52.50;;;;;;5092079;28;20228;-43
2020/12/19 05:26:09;;;;;;;1.00;1.00;;;18.30;52.50;;;;;;5088252;28;20044;-46
2020/12/19 05:28:39;;;;;;;1.17;1.13;;;18.30;52.50;;;;;;5085545;28;20048;-43
2020/12/19 05:31:05;;;;;;;1.42;1.23;;;18.30;52.50;;;;;;5099522;28;20054;-46
2020/12/19 05:33:34;;;;;;;2.13;0.70;;;18.30;52.50;;;;;;5081048;28;20070;-46
2020/12/19 05:36:02;;;;;;;0.70;0.50;;;18.30;52.50;;;;;;5094925;28;20051;-47
2020/12/19 05:38:29;;;;;;;3.00;1.50;;;18.30;52.50;;;;;;5082582;28;20060;-42
2020/12/19 05:40:56;;;;;;;1.35;0.68;;;18.30;52.40;;;;;;5086461;28;20453;-46
2020/12/19 05:43:23;;;;;;;1.33;0.80;;;18.30;52.50;;;;;;5100802;28;20125;-46
2020/12/19 05:45:49;;;;;;;1.20;0.80;;;18.30;52.50;;;;;;5084419;28;20084;-43
2020/12/19 05:48:16;;;;;;;0.57;0.57;;;18.30;52.50;;;;;;5097675;28;20740;-43
2020/12/19 05:50:43;;;;;;;2.70;0.70;;;18.30;52.50;;;;;;5078541;28;20040;-49
2020/12/19 05:53:10;;;;;;;1.52;0.82;;;18.30;52.50;;;;;;5088027;28;20055;-43
2020/12/19 05:55:37;;;;;;;0.73;0.73;;;18.30;52.50;;;;;;5096949;28;20043;-43
2020/12/19 05:58:06;;;;;;;0.80;0.80;;;18.30;52.60;;;;;;5080883;28;20044;-44
2020/12/19 06:00:34;;;;;;;0.63;0.63;;;18.30;52.60;;;;;;5084610;28;20142;-46
2020/12/19 06:03:03;;;;;;;0.70;0.57;;;18.20;52.70;;;;;;5078351;28;20131;-47
2020/12/19 06:05:31;;;;;;;1.75;1.10;;;18.30;52.50;;;;;;5091030;28;20525;-43
2020/12/19 06:08:00;;;;;;;2.38;0.57;;;18.30;52.50;;;;;;5095137;28;20036;-47
2020/12/19 06:10:27;;;;;;;0.88;0.43;;;18.20;52.50;;;;;;5091506;28;20036;-43
2020/12/19 06:13:00;;;;;;;1.45;0.68;;;18.20;52.50;;;;;;5096274;28;20048;-42
2020/12/19 06:15:53;;;;;;;1.25;0.20;;;18.30;52.50;;;;;;5084525;28;20092;-43
2020/12/19 06:18:32;;;;;;;0.43;0.30;;;18.30;52.50;;;;;;5087618;28;20809;-43
2020/12/19 06:21:00;;;;;;;0.52;0.52;;;18.20;52.50;;;;;;5077462;28;20076;-45
2020/12/19 06:23:34;;;;;;;0.98;0.40;;;18.20;52.50;;;;;;5090970;28;20055;-43
2020/12/19 06:26:01;;;;;;;0.60;0.20;;;18.20;52.50;;;;;;5088700;28;20040;-43
2020/12/19 06:28:45;;;;;;;2.83;0.38;;;18.20;52.50;;;;;;5079948;28;20653;-43
2020/12/19 06:31:14;;;;;;;0.60;0.40;;;18.30;52.50;;;;;;5100445;28;20123;-45
2020/12/19 06:33:43;;;;;;;1.00;0.90;;;18.20;53.00;;;;;;5079756;28;20071;-47
2020/12/19 06:36:33;;;;;;;1.45;0.60;;;18.20;52.50;;;;;;5088432;28;20530;-44
2020/12/19 06:39:10;;;;;;;0.68;0.20;;;18.30;52.50;;;;;;5056006;28;20056;-46
2020/12/19 06:41:42;;;;;;;3.17;0.32;;;18.20;52.50;;;;;;5102266;27;20057;-44
2020/12/19 06:44:11;;;;;;;1.67;0.40;;;18.20;52.50;;;;;;5083700;28;20088;-43
2020/12/19 06:46:38;;;;;;;0.65;0.65;;;18.20;53.00;;;;;;5087025;28;20028;-43
2020/12/19 06:49:30;;;;;;;0.30;0.30;;;18.20;52.50;;;;;;5085922;28;20044;-45
2020/12/19 06:52:03;;;;;;;1.67;0.38;;;18.20;52.50;;;;;;5087173;28;20066;-43
2020/12/19 06:54:32;;;;;;;2.38;0.30;;;18.20;52.50;;;;;;5085662;28;20048;-45
2020/12/19 06:56:58;;;;;;;0.68;0.50;;;18.20;52.50;;;;;;5087187;28;20127;-42
2020/12/19 06:59:26;;;;;;;0.40;0.28;;;18.20;52.40;;;;;;5090764;28;20055;-43
2020/12/19 07:01:53;;;;;;;1.65;0.40;;;18.30;52.50;;;;;;5087386;28;20113;-44
2020/12/19 07:04:33;;;;;;;0.40;0.30;;;18.20;52.40;;;;;;5085170;28;20496;-43
2020/12/19 07:07:05;;;;;;;0.68;0.28;;;18.30;52.50;;;;;;5087045;28;20124;-42
2020/12/19 07:09:33;;;;;;;0.73;0.30;;;18.20;52.40;;;;;;5085385;28;20064;-44
2020/12/19 07:11:59;;;;;;;1.17;0.40;;;18.20;52.40;;;;;;5086556;28;20042;-44
2020/12/19 07:14:38;;;;;;;1.08;0.20;;;18.20;52.40;;;;;;5086704;28;20531;-42
2020/12/19 07:17:18;;;;;;;0.65;0.32;;;18.30;52.40;;;;;;5085252;28;20132;-42
2020/12/19 07:19:46;;;;;;;3.00;0.30;;;18.30;52.50;;;;;;5075114;28;20507;-43
2020/12/19 07:22:12;;;;;;;0.38;0.38;;;18.20;52.50;;;;;;5085591;28;20488;-42
2020/12/19 07:24:40;;;;;;;0.40;0.30;;;18.20;52.40;;;;;;5085408;28;20125;-42
2020/12/19 07:27:06;;;;;;;0.93;0.20;;;18.20;52.40;;;;;;5087898;28;20043;-42
2020/12/19 07:29:33;;;;;;;0.65;0.30;;;18.20;52.40;;;;;;5088454;28;20047;-43
2020/12/19 07:32:00;;;;;;;1.63;0.20;;;18.30;52.40;;;;;;5086557;28;20040;-45
2020/12/19 07:34:29;;;;;;;0.90;0.47;;;18.20;52.30;;;;;;5087928;28;20126;-43
2020/12/19 07:36:56;;;;;;;0.40;0.20;;;18.30;52.30;;;;;;5088412;28;20037;-45
2020/12/19 07:39:24;;;;;;;0.40;0.22;;;18.30;52.30;;;;;;5079755;28;20173;-43
2020/12/19 07:42:04;;;;;;;0.35;0.20;;;18.30;52.30;;;;;;5087202;28;20149;-42
2020/12/19 07:44:31;;;;;;;0.63;0.30;;;18.30;52.30;;;;;;5081140;28;20051;-43
2020/12/19 07:47:00;;;;;;;0.20;0.20;;;18.30;52.60;;;;;;5083754;28;20135;-43
2020/12/19 07:49:38;;;;;;;0.20;0.10;;;18.30;52.50;;;;;;5097751;28;20078;-45
2020/12/19 07:52:07;;;;;;;0.52;0.30;;;18.30;52.40;;;;;;5077835;28;20051;-45
2020/12/19 07:54:34;;;;;;;0.52;0.20;;;18.30;52.50;;;;;;5082723;28;20079;-43
2020/12/19 07:57:02;;;;;;;1.98;0.30;;;18.30;52.50;;;;;;5076440;28;20144;-48
2020/12/19 07:59:29;;;;;;;0.57;0.15;;;18.30;52.50;;;;;;5089392;28;20070;-43
2020/12/19 08:01:56;;;;;;;1.33;0.20;;;18.30;52.50;;;;;;5089667;28;20047;-43
2020/12/19 08:04:23;;;;;;;0.47;0.10;;;18.30;52.60;;;;;;5081461;28;20044;-45
2020/12/19 08:06:50;;;;;;;1.55;0.30;;;18.30;52.70;;;;;;5094828;28;20070;-50
2020/12/19 08:09:20;;;;;;;0.30;0.30;;;18.30;52.80;;;;;;5079025;28;20379;-49
2020/12/19 08:11:48;;;;;;;0.35;0.10;;;18.30;52.90;;;;;;5089411;28;20234;-44
2020/12/19 08:14:16;;;;;;;0.30;0.25;;;18.30;52.90;;;;;;5083770;28;20049;-42
2020/12/19 08:16:44;;;;;;;0.20;0.20;;;18.30;53.00;;;;;;5087227;28;20077;-45
2020/12/19 08:19:12;;;;;;;0.52;0.20;;;18.30;53.00;;;;;;5097911;28;20143;-51
2020/12/19 08:21:40;;;;;;;1.75;0.17;;;18.30;53.00;;;;;;5078180;28;20044;-43
2020/12/19 08:24:06;;;;;;;0.30;0.20;;;18.30;53.10;;;;;;5093633;28;20079;-43
2020/12/19 08:26:33;;;;;;;0.98;0.40;;;18.30;53.10;;;;;;5078551;28;20048;-43
2020/12/19 08:29:04;;;;;;;0.20;0.20;;;18.40;53.10;;;;;;5083006;28;20044;-43
2020/12/19 08:31:34;;;;;;;0.40;0.17;;;18.40;53.20;;;;;;5100383;28;20198;-46
2020/12/19 08:34:04;;;;;;;0.90;0.20;;;18.40;53.30;;;;;;5082148;28;20546;-49
2020/12/19 08:36:31;;;;;;;6.43;0.20;;;18.40;53.40;;;;;;5090196;28;20056;-45
2020/12/19 08:39:15;;;;;;;1.77;0.30;;;18.40;53.40;;;;;;5079639;28;20464;-43
2020/12/19 08:41:42;;;;;;;3.83;0.93;;;18.40;53.40;;;;;;5085854;28;20059;-42
2020/12/19 08:44:22;;;;;;;0.82;0.30;;;18.40;53.40;;;;;;5083771;28;20075;-49
2020/12/19 08:47:02;;;;;;;1.25;0.10;;;18.40;53.50;;;;;;5086533;28;20048;-43
2020/12/19 08:49:29;;;;;;;0.20;0.10;;;18.40;53.50;;;;;;5078548;28;20052;-43
2020/12/19 08:51:56;;;;;;;1.38;0.40;;;18.40;53.50;;;;;;5080920;28;20044;-45
2020/12/19 08:54:22;;;;;;;1.15;0.65;;;18.40;53.50;;;;;;5099253;28;20051;-48
2020/12/19 08:56:50;;;;;;;1.05;0.20;;;18.40;53.50;;;;;;5078176;28;20559;-43
2020/12/19 08:59:25;;;;;;;3.03;0.13;;;18.40;53.60;;;;;;5093017;28;20082;-42
2020/12/19 09:01:54;;;;;;;2.28;0.20;;;18.50;53.70;;;;;;5087986;28;20087;-42
2020/12/19 09:04:21;;;;;;;0.65;0.20;;;18.50;53.80;;;;;;5090645;28;20454;-43
2020/12/19 09:06:49;;;;;;;3.53;0.45;;;18.40;53.70;;;;;;5086324;28;20057;-41
2020/12/19 09:09:17;;;;;;;5.63;0.20;;;18.50;54.00;;;;;;5095120;28;20028;-50
2020/12/19 09:11:44;;;;;;;4.43;0.35;;;18.50;54.20;;;;;;5090149;28;20177;-48
2020/12/19 09:14:12;;;;;;;0.70;0.20;;;18.50;54.30;;;;;;5089182;28;20028;-52
2020/12/19 09:16:49;;;;;;;2.65;0.20;;;18.50;54.30;;;;;;5083261;28;20134;-46
2020/12/19 09:19:18;;;;;;;2.15;0.30;;;18.60;54.50;;;;;;5092832;28;20050;-51
2020/12/19 09:21:53;;;;;;;3.75;0.28;;;18.60;54.60;;;;;;5090149;28;20059;-46
2020/12/19 09:24:20;;;;;;;2.00;0.20;;;18.60;54.60;;;;;;5086926;28;20064;-54
2020/12/19 09:26:47;;;;;;;9.90;0.63;;;18.60;54.60;;;;;;5080910;28;20135;-47
2020/12/19 09:29:13;;;;;;;4.22;0.50;;;18.60;55.70;;;;;;5094694;28;20067;-47
2020/12/19 09:31:40;;;;;;;1.77;0.35;;;18.70;56.20;;;;;;5098324;28;20151;-50
2020/12/19 09:34:06;;;;;;;1.52;0.25;;;18.70;56.00;;;;;;5090627;28;20614;-47
2020/12/19 09:36:34;;;;;;;4.30;0.50;;;18.70;56.10;;;;;;5091473;28;20114;-50
2020/12/19 09:39:00;;;;;;;5.70;0.50;;;18.80;57.60;;;;;;5084218;28;20816;-48
2020/12/19 09:41:27;;;;;;;9.07;0.60;;;18.80;58.50;;;;;;5091084;28;20127;-48
2020/12/19 09:43:53;;;;;;;8.35;1.05;;;18.80;59.30;;;;;;5083629;28;20158;-50
2020/12/19 09:46:20;;;;;;;5.80;1.08;;;18.80;59.70;;;;;;5084942;28;20053;-49
2020/12/19 09:48:46;;;;;;;8.00;0.50;;;18.90;60.00;;;;;;5088370;28;20705;-50
2020/12/19 09:51:13;;;;;;;3.70;0.63;;;18.90;60.20;;;;;;5085279;28;20060;-47
2020/12/19 09:53:40;;;;;;;8.93;0.70;;;19.00;60.20;;;;;;5084049;28;20052;-46
2020/12/19 09:56:07;;;;;;;8.35;0.90;;;19.00;60.30;;;;;;5083533;28;20040;-46
2020/12/19 09:58:33;;;;;;;3.38;1.05;;;19.00;60.50;;;;;;5083900;28;20048;-46
2020/12/19 10:01:00;;;;;;;14.68;0.82;;;19.00;60.50;;;;;;5088759;28;20101;-46
2020/12/19 10:03:26;;;;;;;1.65;0.63;;;19.00;60.50;;;;;;5072785;28;20432;-51
2020/12/19 10:05:53;;;;;;;1.67;0.60;;;19.10;60.50;;;;;;5084361;28;20465;-47
2020/12/19 10:08:21;;;;;;;5.97;1.48;;;19.00;60.40;;;;;;5088576;28;20074;-47
2020/12/19 10:10:48;;;;;;;7.35;1.08;;;19.10;60.40;;;;;;5083883;28;20126;-46
2020/12/19 10:13:15;;;;;;;9.65;1.95;;;19.10;60.40;;;;;;5088269;28;20524;-46
2020/12/19 10:15:42;;;;;;;9.27;2.65;;;19.10;60.30;;;;;;5080646;28;20050;-47
2020/12/19 10:18:08;;;;;;;14.02;4.85;;;19.10;60.10;;;;;;5075481;28;20045;-46
2020/12/19 10:20:35;;;;;;;16.02;5.95;;;19.20;60.00;;;;;;5076252;28;20048;-46
2020/12/19 10:23:01;;;;;;;9.57;5.28;;;19.20;59.90;;;;;;5076382;28;20068;-46
2020/12/19 10:25:28;;;;;;;7.75;4.45;;;19.20;59.70;;;;;;5075883;28;20048;-49
2020/12/19 10:27:55;;;;;;;13.18;5.28;;;19.20;59.60;;;;;;5072166;28;20048;-47
2020/12/19 10:30:22;;;;;;;9.25;5.15;;;19.20;59.60;;;;;;5085574;28;20050;-46
2020/12/19 10:32:48;;;;;;;8.60;3.53;;;19.20;59.40;;;;;;5083718;28;20052;-48
2020/12/19 10:35:15;;;;;;;12.32;3.60;;;19.20;59.40;;;;;;5083131;28;20828;-47
2020/12/19 10:37:42;;;;;;;7.38;4.13;;;19.20;59.90;;;;;;5083299;28;20052;-46
2020/12/19 10:40:08;;;;;;;9.05;4.28;;;19.20;59.20;;;;;;5087764;28;20050;-48
2020/12/19 10:42:35;;;;;;;13.23;4.57;;;19.20;59.20;;;;;;5073904;28;20048;-47
2020/12/19 10:45:04;;;;;;;7.65;4.55;;;19.20;59.20;;;;;;5084122;28;20051;-47
2020/12/19 10:47:31;;;;;;;9.75;4.53;;;19.30;59.30;;;;;;5078466;28;20051;-48
2020/12/19 10:49:58;;;;;;;7.32;3.38;;;19.30;59.20;;;;;;5075863;28;20101;-46
2020/12/19 10:52:25;;;;;;;6.80;3.10;;;19.30;59.10;;;;;;5086512;28;20126;-45
2020/12/19 10:54:51;;;;;;;8.27;3.42;;;19.30;59.00;;;;;;5071093;28;20065;-48
2020/12/19 10:57:18;;;;;;;4.65;2.95;;;19.30;59.00;;;;;;5084225;28;20044;-49
2020/12/19 10:59:44;;;;;;;3.92;2.15;;;19.30;58.90;;;;;;5082989;28;20131;-50
2020/12/19 11:02:12;;;;;;;6.38;2.17;;;19.30;58.90;;;;;;5081020;28;20055;-48
2020/12/19 11:04:38;;;;;;;3.80;2.53;;;19.30;58.80;;;;;;5072836;28;20066;-46
2020/12/19 11:07:05;;;;;;;7.03;2.72;;;19.30;58.80;;;;;;5086339;28;20044;-47
2020/12/19 11:09:31;;;;;;;4.63;2.42;;;19.30;58.70;;;;;;5084783;28;20458;-47
2020/12/19 11:11:58;;;;;;;2.35;1.95;;;19.30;58.70;;;;;;5083872;28;20163;-48
2020/12/19 11:14:25;;;;;;;2.20;1.80;;;19.30;58.60;;;;;;5082896;28;20036;-48
2020/12/19 11:16:56;;;;;;;5.05;2.25;;;19.40;58.60;;;;;;5082627;28;20048;-49
2020/12/19 11:19:24;;;;;;;4.32;1.73;;;19.40;58.50;;;;;;5086638;28;20626;-46
2020/12/19 11:21:50;;;;;;;5.88;2.53;;;19.40;58.40;;;;;;5071124;28;20033;-46
2020/12/19 11:24:17;;;;;;;4.40;1.45;;;19.30;58.40;;;;;;5081713;28;20032;-46
2020/12/19 11:26:43;;;;;;;1.73;1.63;;;19.40;58.30;;;;;;5082270;28;20044;-47
2020/12/19 11:29:10;;;;;;;3.33;1.83;;;19.40;58.20;;;;;;5080757;28;20812;-48
2020/12/19 11:31:37;;;;;;;2.50;1.00;;;19.40;58.10;;;;;;5072574;28;20445;-47
2020/12/19 11:34:04;;;;;;;2.83;1.83;;;19.40;58.10;;;;;;5085148;28;20052;-46
2020/12/19 11:36:38;;;;;;;2.05;1.45;;;19.40;58.00;;;;;;5084365;28;20056;-47
2020/12/19 11:39:05;;;;;;;2.90;1.80;;;19.40;58.00;;;;;;5083888;28;20419;-47
2020/12/19 11:41:32;;;;;;;4.68;2.08;;;19.40;57.90;;;;;;5077394;28;20079;-48
2020/12/19 11:43:58;;;;;;;2.72;2.05;;;19.40;57.80;;;;;;5075437;28;20075;-47
2020/12/19 11:46:25;;;;;;;2.63;2.42;;;19.40;57.80;;;;;;5079962;28;20560;-48
2020/12/19 11:48:51;;;;;;;2.22;1.15;;;19.40;57.70;;;;;;5086383;28;20121;-49
2020/12/19 11:51:25;;;;;;;3.60;2.17;;;19.40;57.70;;;;;;5083664;28;20565;-47
2020/12/19 11:53:52;;;;;;;1.92;1.50;;;19.40;57.70;;;;;;5075664;28;20048;-48
2020/12/19 11:56:20;;;;;;;1.23;0.93;;;19.40;57.70;;;;;;5077934;28;20438;-46
2020/12/19 11:58:47;;;;;;;4.30;1.42;;;19.40;57.60;;;;;;5083899;28;20059;-46
2020/12/19 12:01:13;;;;;;;1.88;1.73;;;19.50;57.60;;;;;;5073340;28;20072;-47
2020/12/19 12:03:40;;;;;;;5.35;1.83;;;19.50;57.50;;;;;;5071309;28;20052;-51
2020/12/19 12:06:07;;;;;;;1.42;1.08;;;19.50;57.50;;;;;;5078347;28;20049;-46
2020/12/19 12:08:33;;;;;;;1.45;0.73;;;19.40;57.40;;;;;;5079365;28;20040;-47
2020/12/19 12:11:01;;;;;;;1.85;1.35;;;19.50;57.40;;;;;;5079491;28;20028;-47
2020/12/19 12:13:27;;;;;;;2.00;1.33;;;19.50;57.30;;;;;;5086088;28;20045;-46
2020/12/19 12:15:54;;;;;;;2.72;1.00;;;19.50;57.20;;;;;;5083709;28;20081;-46
2020/12/19 12:18:20;;;;;;;3.55;1.35;;;19.50;57.20;;;;;;5087857;28;20075;-46
2020/12/19 12:20:47;;;;;;;1.15;0.80;;;19.50;57.10;;;;;;5079535;28;20496;-46
2020/12/19 12:23:13;;;;;;;2.97;1.55;;;19.50;57.10;;;;;;5079245;28;20066;-50
2020/12/19 12:25:40;;;;;;;3.58;1.35;;;19.50;57.10;;;;;;5076202;28;20048;-48
2020/12/19 12:28:07;;;;;;;1.85;1.10;;;19.50;57.10;;;;;;5089171;28;20040;-48
2020/12/19 12:30:34;;;;;;;2.53;0.93;;;19.50;57.00;;;;;;5088190;28;20040;-49
2020/12/19 12:33:00;;;;;;;1.75;1.10;;;19.50;57.10;;;;;;5088436;28;20411;-47
2020/12/19 12:35:27;;;;;;;3.42;1.73;;;19.50;57.10;;;;;;5080447;28;20496;-46
2020/12/19 12:37:54;;;;;;;1.95;0.88;;;19.60;57.10;;;;;;5078829;28;20056;-48
2020/12/19 12:40:20;;;;;;;2.45;1.45;;;19.50;57.00;;;;;;5074270;28;20049;-48
2020/12/19 12:42:47;;;;;;;3.63;1.10;;;19.60;56.90;;;;;;5089457;28;20123;-50
2020/12/19 12:45:14;;;;;;;4.72;2.08;;;19.60;56.90;;;;;;5083611;28;20050;-47
2020/12/19 12:47:40;;;;;;;4.40;1.33;;;19.60;56.80;;;;;;5086248;28;20756;-46
2020/12/19 12:50:09;;;;;;;4.18;1.17;;;19.60;56.80;;;;;;5084744;28;20416;-50